Time;durP1;ratioP1;P1;durP2;ratioP2;P2;SDS_P1;SDS_P2;PMS_P1;PMS_P2;Temp;Humidity;BMP_temperature;BMP_pressure;BME280_temperature;BME280_humidity;BME280_pressure;Samples;Min_cycle;Max_cycle;Signal;HPM_P1;HPM_P2
2022/07/20 00:04:04;;;;;;;2.57;2.37;;;25.50;19.00;;;;;;10436776;28;20682;-71
2022/07/20 00:14:29;;;;;;;2.70;2.50;;;25.40;18.80;;;;;;10432966;28;20225;-70
2022/07/20 00:19:32;;;;;;;3.20;2.40;;;25.20;19.30;;;;;;10426454;28;20244;-70
2022/07/20 00:24:36;;;;;;;3.23;2.77;;;25.10;19.20;;;;;;10427695;28;20825;-71
2022/07/20 00:29:41;;;;;;;3.47;2.43;;;24.90;19.50;;;;;;10433620;28;20248;-70
2022/07/20 00:34:44;;;;;;;3.80;2.10;;;24.90;20.00;;;;;;10424431;28;20221;-70
2022/07/20 00:39:48;;;;;;;4.70;2.50;;;24.80;19.90;;;;;;10428705;28;20606;-70
2022/07/20 00:44:52;;;;;;;2.70;2.50;;;24.70;20.00;;;;;;10425916;28;20235;-71
2022/07/20 00:49:55;;;;;;;3.07;2.13;;;24.70;20.60;;;;;;10435044;28;20707;-70
2022/07/20 00:54:59;;;;;;;2.73;2.53;;;24.60;20.20;;;;;;10420710;28;20844;-70
2022/07/20 01:00:06;;;;;;;2.67;1.90;;;24.60;20.30;;;;;;10425332;28;20305;-70
2022/07/20 01:05:13;;;;;;;2.43;1.90;;;24.50;20.80;;;;;;10422969;28;20705;-70
2022/07/20 01:10:19;;;;;;;2.30;2.10;;;24.50;20.60;;;;;;10418879;28;20228;-70
2022/07/20 01:15:24;;;;;;;3.20;2.20;;;24.40;20.90;;;;;;10423580;28;20233;-70
2022/07/20 01:20:30;;;;;;;3.53;2.23;;;24.30;21.10;;;;;;10420040;28;20268;-71
2022/07/20 01:25:37;;;;;;;2.60;2.20;;;24.30;21.00;;;;;;10423664;28;20222;-70
2022/07/20 01:36:56;;;;;;;2.10;1.90;;;24.10;21.50;;;;;;10422245;28;20229;-70
2022/07/20 01:42:01;;;;;;;2.20;2.00;;;24.00;21.00;;;;;;10426916;28;20599;-71
2022/07/20 01:47:04;;;;;;;2.93;2.17;;;23.90;21.80;;;;;;10424256;28;20229;-70
2022/07/20 01:52:07;;;;;;;2.47;2.27;;;23.90;21.50;;;;;;10416215;28;20735;-70
2022/07/20 01:57:12;;;;;;;2.37;2.17;;;23.80;21.40;;;;;;10426306;28;20697;-71
2022/07/20 02:02:15;;;;;;;2.30;2.10;;;23.80;22.10;;;;;;10422587;28;20224;-70
2022/07/20 02:13:37;;;;;;;2.07;1.93;;;23.60;22.30;;;;;;10425362;28;20244;-70
2022/07/20 02:18:40;;;;;;;2.40;2.20;;;23.60;22.20;;;;;;10422583;28;20233;-70
2022/07/20 02:23:44;;;;;;;2.90;2.13;;;23.50;21.90;;;;;;10428560;28;20307;-71
2022/07/20 02:28:49;;;;;;;1.87;1.77;;;23.40;22.10;;;;;;10422789;28;20321;-70
2022/07/20 02:33:53;;;;;;;2.00;1.90;;;23.40;22.50;;;;;;10425094;28;20229;-70
2022/07/20 02:38:56;;;;;;;2.67;2.33;;;23.30;22.30;;;;;;10423089;28;20225;-70
2022/07/20 02:44:01;;;;;;;3.50;2.17;;;23.30;22.40;;;;;;10429830;28;20249;-71
2022/07/20 02:49:04;;;;;;;2.33;2.20;;;23.20;22.90;;;;;;10428110;28;20232;-70
2022/07/20 02:54:07;;;;;;;2.30;2.10;;;23.10;22.50;;;;;;10427802;28;20228;-70
2022/07/20 02:59:12;;;;;;;2.40;2.20;;;23.10;22.70;;;;;;10424847;28;20225;-70
2022/07/20 03:04:15;;;;;;;2.20;2.00;;;23.00;23.20;;;;;;10409166;28;20221;-70
2022/07/20 03:09:18;;;;;;;2.60;2.20;;;23.00;22.90;;;;;;10420660;28;20304;-71
2022/07/20 03:15:11;;;;;;;2.33;2.10;;;23.00;23.10;;;;;;10416418;28;20237;-71
2022/07/20 03:20:34;;;;;;;2.13;2.03;;;22.90;23.50;;;;;;10420974;28;20221;-70
2022/07/20 03:25:38;;;;;;;2.20;2.00;;;22.90;23.60;;;;;;10419430;28;20233;-71
2022/07/20 03:30:41;;;;;;;2.63;2.10;;;22.90;23.40;;;;;;10423957;28;20229;-70
2022/07/20 03:35:46;;;;;;;2.50;2.30;;;22.80;23.30;;;;;;10421737;28;20319;-70
2022/07/20 03:40:49;;;;;;;2.13;1.93;;;22.80;23.70;;;;;;10420783;28;20232;-70
2022/07/20 03:45:52;;;;;;;1.90;1.80;;;22.70;23.50;;;;;;10413010;28;20740;-71
2022/07/20 03:50:57;;;;;;;2.57;2.37;;;22.70;23.70;;;;;;10421279;28;20221;-71
2022/07/20 03:56:00;;;;;;;3.40;2.27;;;22.60;24.20;;;;;;10424837;28;20236;-70
2022/07/20 04:01:04;;;;;;;3.90;2.10;;;22.60;23.80;;;;;;10426925;28;20279;-70
2022/07/20 04:06:08;;;;;;;2.50;2.30;;;22.60;24.00;;;;;;10426783;28;20592;-70
2022/07/20 04:11:11;;;;;;;2.03;1.93;;;22.60;24.50;;;;;;10434527;28;20713;-70
2022/07/20 04:16:15;;;;;;;4.23;2.60;;;22.50;24.20;;;;;;10432625;28;20229;-71
2022/07/20 04:21:19;;;;;;;2.47;2.20;;;22.50;24.20;;;;;;10431759;28;20719;-70
2022/07/20 04:26:23;;;;;;;2.70;2.50;;;22.50;24.50;;;;;;10432603;28;20230;-70
2022/07/20 04:31:26;;;;;;;2.80;2.60;;;22.50;24.40;;;;;;10424928;28;20784;-70
2022/07/20 04:36:31;;;;;;;2.60;2.37;;;22.40;24.40;;;;;;10425312;28;20255;-70
2022/07/20 04:41:34;;;;;;;3.80;2.40;;;22.40;25.10;;;;;;10425867;28;20243;-70
2022/07/20 04:46:37;;;;;;;2.57;2.17;;;22.40;25.20;;;;;;10430940;28;20225;-71
2022/07/20 04:51:43;;;;;;;3.27;2.50;;;22.50;25.40;;;;;;10427479;28;20291;-71
2022/07/20 04:56:46;;;;;;;2.63;2.43;;;22.50;25.90;;;;;;10433579;28;20304;-71
2022/07/20 05:01:50;;;;;;;2.87;2.60;;;22.60;25.90;;;;;;10435457;28;20740;-71
2022/07/20 05:06:54;;;;;;;2.53;2.33;;;22.70;25.60;;;;;;10427454;28;20234;-71
2022/07/20 05:11:58;;;;;;;3.57;2.90;;;22.70;26.20;;;;;;10430667;28;20236;-71
2022/07/20 05:17:01;;;;;;;3.27;2.70;;;22.80;26.00;;;;;;10422515;28;20240;-70
2022/07/20 05:22:06;;;;;;;3.13;2.83;;;22.90;25.90;;;;;;10426321;28;20294;-70
2022/07/20 05:27:09;;;;;;;3.37;3.13;;;23.00;26.50;;;;;;10428115;28;20236;-71
2022/07/20 05:32:12;;;;;;;2.87;2.57;;;23.20;26.20;;;;;;10428517;28;20256;-70
2022/07/20 05:37:17;;;;;;;3.27;2.47;;;23.30;26.20;;;;;;10438047;28;20255;-70
2022/07/20 05:42:20;;;;;;;2.90;2.70;;;23.50;26.60;;;;;;10427681;28;20217;-71
2022/07/20 05:47:23;;;;;;;3.93;3.07;;;23.60;26.50;;;;;;10428026;28;20609;-70
2022/07/20 05:52:28;;;;;;;3.07;2.80;;;23.80;26.50;;;;;;10426801;28;20240;-71
2022/07/20 05:57:31;;;;;;;4.73;2.70;;;24.00;26.70;;;;;;10429596;28;20249;-71
2022/07/20 06:02:34;;;;;;;2.70;2.47;;;24.10;26.30;;;;;;10428581;28;20236;-71
2022/07/20 06:07:39;;;;;;;4.03;2.67;;;24.30;26.40;;;;;;10436567;28;20230;-71
2022/07/20 06:12:47;;;;;;;6.27;2.80;;;24.50;26.10;;;;;;10418289;28;20233;-72
2022/07/20 06:17:51;;;;;;;8.57;3.40;;;24.70;26.00;;;;;;10408903;28;20245;-72
2022/07/20 06:22:56;;;;;;;4.03;2.53;;;24.90;25.90;;;;;;10414027;28;20246;-71
2022/07/20 06:28:00;;;;;;;2.77;2.57;;;25.10;26.00;;;;;;10417631;28;20236;-72
2022/07/20 06:33:04;;;;;;;3.07;2.77;;;25.40;25.90;;;;;;10419429;28;20221;-71
2022/07/20 06:38:09;;;;;;;3.33;2.70;;;25.60;26.40;;;;;;10419037;28;20239;-72
2022/07/20 06:43:13;;;;;;;2.90;2.70;;;25.80;26.00;;;;;;10417337;28;20307;-72
2022/07/20 06:48:16;;;;;;;2.70;2.50;;;26.00;25.60;;;;;;10417057;28;20230;-72
2022/07/20 06:53:22;;;;;;;3.20;2.80;;;26.30;25.60;;;;;;10415381;28;20229;-72
2022/07/20 06:58:26;;;;;;;2.70;2.50;;;26.50;25.50;;;;;;10423460;28;20602;-71
2022/07/20 07:03:29;;;;;;;2.70;2.50;;;26.70;25.20;;;;;;10425792;28;20225;-71
2022/07/20 07:08:39;;;;;;;3.67;2.87;;;26.90;25.00;;;;;;10415982;28;20229;-73
2022/07/20 07:13:43;;;;;;;3.20;3.00;;;27.10;25.00;;;;;;10419145;28;21120;-72
2022/07/20 07:18:46;;;;;;;3.33;2.90;;;27.30;24.80;;;;;;10417667;28;20240;-72
2022/07/20 07:23:51;;;;;;;2.77;2.57;;;27.50;24.80;;;;;;10423210;28;20620;-71
2022/07/20 07:28:54;;;;;;;3.30;3.00;;;27.80;24.70;;;;;;10414572;28;20233;-71
2022/07/20 07:34:05;;;;;;;3.27;2.97;;;27.90;24.50;;;;;;10423114;28;20224;-72
2022/07/20 07:39:10;;;;;;;5.33;3.47;;;28.20;24.50;;;;;;10418420;28;20224;-71
2022/07/20 07:44:13;;;;;;;3.53;2.93;;;28.40;24.50;;;;;;10421469;28;20243;-71
2022/07/20 07:49:17;;;;;;;4.67;3.10;;;28.70;24.20;;;;;;10419916;28;20225;-71
2022/07/20 07:54:21;;;;;;;3.50;3.20;;;28.90;24.00;;;;;;10416727;28;20781;-72
2022/07/20 07:59:24;;;;;;;3.53;3.00;;;29.10;23.80;;;;;;10424192;28;20221;-71
2022/07/20 08:04:36;;;;;;;3.43;3.13;;;29.30;23.60;;;;;;10421676;28;20224;-72
2022/07/20 08:09:41;;;;;;;4.23;3.10;;;29.50;23.50;;;;;;10418376;28;20247;-72
2022/07/20 08:14:44;;;;;;;4.40;3.37;;;29.70;23.30;;;;;;10414848;28;20221;-71
2022/07/20 08:19:47;;;;;;;3.50;3.27;;;30.00;23.00;;;;;;10422237;28;20611;-71
2022/07/20 08:24:52;;;;;;;3.53;3.27;;;30.20;22.80;;;;;;10418696;28;20229;-71
2022/07/20 08:29:58;;;;;;;3.50;3.30;;;30.40;22.70;;;;;;10419186;28;20234;-71
2022/07/20 08:35:01;;;;;;;4.83;3.67;;;30.60;22.50;;;;;;10422510;28;21065;-71
2022/07/20 08:40:08;;;;;;;3.50;3.30;;;30.80;22.20;;;;;;10416696;28;21011;-72
2022/07/20 08:45:11;;;;;;;3.80;3.37;;;31.00;21.60;;;;;;10421623;28;20222;-71
2022/07/20 08:50:14;;;;;;;3.77;3.47;;;31.30;21.90;;;;;;10419418;28;20723;-73
2022/07/20 08:55:19;;;;;;;5.67;3.87;;;31.50;21.90;;;;;;10419017;28;20225;-71
2022/07/20 09:00:23;;;;;;;3.80;3.50;;;31.70;21.80;;;;;;10414160;28;20227;-72
2022/07/20 09:05:28;;;;;;;4.10;3.83;;;31.90;22.00;;;;;;10415217;28;20220;-71
2022/07/20 09:10:35;;;;;;;4.27;3.97;;;32.20;21.50;;;;;;10416756;28;20234;-71
2022/07/20 09:15:40;;;;;;;4.53;4.10;;;32.40;21.10;;;;;;10414984;28;20896;-71
2022/07/20 09:20:46;;;;;;;6.00;4.10;;;32.70;20.80;;;;;;10420809;28;20235;-71
2022/07/20 09:25:58;;;;;;;4.60;4.20;;;32.80;20.70;;;;;;10415900;28;20695;-71
2022/07/20 09:31:02;;;;;;;4.63;4.33;;;33.10;20.30;;;;;;10410796;28;20245;-70
2022/07/20 09:36:07;;;;;;;4.63;4.23;;;33.30;20.40;;;;;;10414770;28;20257;-71
2022/07/20 09:41:25;;;;;;;4.63;4.23;;;33.40;20.20;;;;;;10412489;28;20228;-71
2022/07/20 09:46:31;;;;;;;4.63;4.30;;;33.60;20.00;;;;;;10418709;28;20312;-72
2022/07/20 09:51:36;;;;;;;5.13;4.20;;;33.90;19.70;;;;;;10415229;28;20217;-71
2022/07/20 09:56:42;;;;;;;4.97;4.57;;;34.00;19.40;;;;;;10412324;28;20244;-71
2022/07/20 10:01:47;;;;;;;5.20;4.67;;;34.30;19.20;;;;;;10415033;28;20675;-71
2022/07/20 10:06:54;;;;;;;5.00;4.50;;;34.50;19.60;;;;;;10417717;28;20233;-72
2022/07/20 10:11:59;;;;;;;4.70;4.30;;;34.60;19.20;;;;;;10416145;28;20234;-72
2022/07/20 10:17:02;;;;;;;5.03;4.53;;;34.70;18.60;;;;;;10404709;28;20235;-71
2022/07/20 10:22:09;;;;;;;4.57;4.20;;;34.90;18.70;;;;;;10412889;28;20234;-72
2022/07/20 10:27:28;;;;;;;5.33;4.93;;;35.00;18.40;;;;;;10417890;28;20217;-72
2022/07/20 10:32:32;;;;;;;4.97;4.57;;;35.10;18.50;;;;;;10415189;28;20278;-71
2022/07/20 10:37:40;;;;;;;5.53;4.60;;;35.20;18.60;;;;;;10414162;28;20587;-71
2022/07/20 10:42:46;;;;;;;5.97;4.83;;;35.30;17.60;;;;;;10411965;28;21038;-72
2022/07/20 10:47:52;;;;;;;4.70;4.27;;;35.40;17.50;;;;;;10411147;28;20247;-71
2022/07/20 10:52:57;;;;;;;4.73;4.33;;;35.50;17.60;;;;;;10408836;28;20313;-71
2022/07/20 10:58:04;;;;;;;4.77;4.37;;;35.60;17.30;;;;;;10411945;28;20223;-72
2022/07/20 11:03:14;;;;;;;4.80;4.50;;;35.70;17.10;;;;;;10415842;28;20216;-71
2022/07/20 11:08:18;;;;;;;4.63;4.23;;;35.80;16.90;;;;;;10419081;28;20221;-71
2022/07/20 11:13:23;;;;;;;4.80;4.30;;;36.00;17.20;;;;;;10429996;28;20232;-71
2022/07/20 11:18:29;;;;;;;4.57;4.10;;;36.20;17.10;;;;;;10430801;28;20228;-71
2022/07/20 11:23:40;;;;;;;4.40;4.10;;;36.30;16.50;;;;;;10434046;28;20236;-71
2022/07/20 11:28:51;;;;;;;4.70;4.40;;;36.50;16.10;;;;;;10427016;28;20905;-74
2022/07/20 11:33:57;;;;;;;4.60;4.30;;;36.70;15.70;;;;;;10422265;28;20284;-75
2022/07/20 11:39:03;;;;;;;4.70;4.37;;;36.80;15.60;;;;;;10424377;28;20255;-75
2022/07/20 11:44:18;;;;;;;4.53;4.20;;;36.90;15.40;;;;;;10427935;28;20221;-74
2022/07/20 11:49:21;;;;;;;4.73;4.40;;;37.00;15.00;;;;;;10422809;28;21589;-74
2022/07/20 11:54:35;;;;;;;4.53;4.13;;;37.10;15.40;;;;;;10422752;28;20698;-76
2022/07/20 11:59:46;;;;;;;4.20;3.90;;;37.20;14.90;;;;;;10422209;28;20256;-74
2022/07/20 12:04:49;;;;;;;5.10;4.70;;;37.30;14.30;;;;;;10422029;28;20218;-74
2022/07/20 12:09:52;;;;;;;5.55;4.25;;;37.40;15.10;;;;;;10410755;28;20352;-74
2022/07/20 12:14:58;;;;;;;4.53;4.20;;;37.40;14.30;;;;;;10407658;28;20230;-74
2022/07/20 12:20:01;;;;;;;6.28;4.45;;;37.40;14.30;;;;;;10406732;28;20233;-74
2022/07/20 12:25:11;;;;;;;4.63;4.22;;;37.50;14.40;;;;;;10410624;28;20239;-74
2022/07/20 12:30:28;;;;;;;4.20;3.87;;;37.50;14.30;;;;;;10409548;28;20277;-76
2022/07/20 12:35:31;;;;;;;4.23;3.83;;;37.60;14.10;;;;;;10404464;28;20232;-74
2022/07/20 12:40:40;;;;;;;4.50;4.20;;;37.60;14.50;;;;;;10413135;28;20312;-73
2022/07/20 12:45:45;;;;;;;5.03;3.90;;;37.70;13.20;;;;;;10406963;28;20766;-74
2022/07/20 12:50:48;;;;;;;4.30;3.90;;;37.80;13.20;;;;;;10413941;28;20234;-73
2022/07/20 12:55:52;;;;;;;4.10;3.75;;;37.90;13.20;;;;;;10406418;28;20237;-73
2022/07/20 13:00:57;;;;;;;3.63;3.40;;;38.00;12.80;;;;;;10406800;28;20221;-74
2022/07/20 13:06:00;;;;;;;3.90;3.70;;;38.10;12.10;;;;;;10407066;28;20229;-73
2022/07/20 13:11:04;;;;;;;6.88;3.25;;;38.10;12.10;;;;;;10408500;28;20245;-75
2022/07/20 13:16:08;;;;;;;4.35;4.05;;;38.20;11.80;;;;;;10408006;28;20232;-76
2022/07/20 13:21:12;;;;;;;4.13;3.83;;;38.20;11.50;;;;;;10404447;28;20332;-75
2022/07/20 13:26:16;;;;;;;3.97;3.67;;;38.20;11.80;;;;;;10403133;28;21300;-74
2022/07/20 13:31:21;;;;;;;3.90;3.50;;;38.40;11.70;;;;;;10409144;28;20223;-74
2022/07/20 13:36:44;;;;;;;3.70;3.40;;;38.40;11.00;;;;;;10411357;28;20232;-75
2022/07/20 13:41:47;;;;;;;5.47;3.60;;;38.40;11.20;;;;;;10419325;28;20807;-74
2022/07/20 13:46:52;;;;;;;3.75;3.45;;;38.50;10.80;;;;;;10418125;28;20231;-74
2022/07/20 13:51:55;;;;;;;4.30;3.90;;;38.60;10.00;;;;;;10416052;28;20235;-74
2022/07/20 13:57:19;;;;;;;3.67;3.40;;;38.50;10.20;;;;;;10414146;28;20242;-74
2022/07/20 14:02:23;;;;;;;3.95;3.65;;;38.50;10.20;;;;;;10413599;28;20231;-73
2022/07/20 14:07:27;;;;;;;4.00;3.70;;;38.50;9.60;;;;;;10410342;28;20330;-74
2022/07/20 14:12:30;;;;;;;3.92;3.63;;;38.50;9.60;;;;;;10407070;28;20231;-74
2022/07/20 14:17:37;;;;;;;3.80;3.50;;;38.50;9.50;;;;;;10411639;28;20236;-74
2022/07/20 14:22:41;;;;;;;3.78;3.47;;;38.60;8.80;;;;;;10408108;28;20412;-74
2022/07/20 14:27:44;;;;;;;3.50;3.30;;;38.60;9.50;;;;;;10411528;28;20611;-74
2022/07/20 14:32:49;;;;;;;3.67;3.38;;;38.60;9.30;;;;;;10411076;28;20235;-74
2022/07/20 14:37:52;;;;;;;3.70;3.40;;;38.60;8.70;;;;;;10415335;28;20231;-74
2022/07/20 14:42:55;;;;;;;3.65;3.40;;;38.60;9.50;;;;;;10419076;28;20243;-74
2022/07/20 14:48:00;;;;;;;3.63;3.33;;;38.70;9.10;;;;;;10412571;28;20221;-74
2022/07/20 14:53:04;;;;;;;3.72;3.42;;;38.70;8.90;;;;;;10413208;28;20223;-74
2022/07/20 14:58:16;;;;;;;3.92;3.53;;;38.70;8.80;;;;;;10412799;28;20231;-74
2022/07/20 15:03:20;;;;;;;7.40;3.30;;;38.80;8.80;;;;;;10420644;28;20229;-74
2022/07/20 15:08:25;;;;;;;4.00;3.70;;;38.90;8.20;;;;;;10417212;28;20310;-75
2022/07/20 15:13:29;;;;;;;5.00;3.42;;;39.00;8.60;;;;;;10415858;28;20240;-73
2022/07/20 15:18:34;;;;;;;3.78;3.47;;;39.10;8.10;;;;;;10411197;28;20238;-73
2022/07/20 15:23:37;;;;;;;3.22;3.03;;;39.20;7.80;;;;;;10412150;28;20227;-74
2022/07/20 15:28:41;;;;;;;4.20;3.80;;;39.20;7.40;;;;;;10408932;28;20232;-74
2022/07/20 15:33:46;;;;;;;3.63;3.33;;;39.20;7.40;;;;;;10413385;28;20229;-74
2022/07/20 15:38:49;;;;;;;3.72;3.40;;;39.20;7.40;;;;;;10407925;28;20236;-75
2022/07/20 15:43:53;;;;;;;4.10;3.30;;;39.20;7.60;;;;;;10410442;28;20287;-75
2022/07/20 15:48:58;;;;;;;3.25;3.05;;;39.40;7.70;;;;;;10415708;28;20274;-75
2022/07/20 15:54:02;;;;;;;3.35;3.05;;;39.40;7.40;;;;;;10417304;28;20237;-75
2022/07/20 15:59:05;;;;;;;3.83;3.05;;;39.40;7.30;;;;;;10421272;28;20718;-76
2022/07/20 16:04:10;;;;;;;3.60;3.30;;;39.50;7.30;;;;;;10424214;28;20230;-74
2022/07/20 16:09:13;;;;;;;3.38;3.17;;;39.40;7.10;;;;;;10422585;28;20757;-75
2022/07/20 16:14:17;;;;;;;3.67;3.30;;;39.50;7.40;;;;;;10426668;28;20248;-75
2022/07/20 16:19:21;;;;;;;4.28;3.20;;;39.50;7.10;;;;;;10428663;28;20227;-75
2022/07/20 16:24:24;;;;;;;3.42;2.60;;;39.50;6.50;;;;;;10419851;28;20224;-75
2022/07/20 16:29:28;;;;;;;2.47;2.38;;;39.30;6.60;;;;;;10422076;28;20236;-74
2022/07/20 16:34:33;;;;;;;2.45;2.25;;;39.20;5.70;;;;;;10419399;28;20239;-74
2022/07/20 16:39:36;;;;;;;2.78;2.58;;;39.10;5.10;;;;;;10415380;28;20243;-75
2022/07/20 16:44:39;;;;;;;2.53;2.33;;;39.10;6.40;;;;;;10423545;28;20237;-74
2022/07/20 16:49:44;;;;;;;3.33;1.90;;;39.10;5.80;;;;;;10412779;28;20242;-75
2022/07/20 16:54:47;;;;;;;2.40;2.20;;;39.10;5.10;;;;;;10420084;28;20275;-75
2022/07/20 16:59:51;;;;;;;2.20;2.00;;;39.00;5.40;;;;;;10420389;28;20234;-74
2022/07/20 17:04:56;;;;;;;2.05;1.70;;;38.90;5.10;;;;;;10400448;28;20643;-74
2022/07/20 17:09:59;;;;;;;4.13;3.83;;;38.90;4.90;;;;;;10411121;28;20235;-72
2022/07/20 17:15:03;;;;;;;5.57;5.10;;;38.90;5.20;;;;;;10406426;28;20227;-74
2022/07/20 17:20:08;;;;;;;4.60;4.30;;;38.80;5.20;;;;;;10411071;28;20236;-74
2022/07/20 17:25:12;;;;;;;3.72;2.58;;;38.70;5.80;;;;;;10400781;28;20222;-74
2022/07/20 17:30:16;;;;;;;2.95;2.13;;;38.70;6.30;;;;;;10405607;28;20238;-74
2022/07/20 17:35:21;;;;;;;3.47;2.20;;;38.60;6.40;;;;;;10402470;28;20250;-74
2022/07/20 17:40:24;;;;;;;4.20;2.33;;;38.50;6.50;;;;;;10406631;28;20236;-74
2022/07/20 17:45:28;;;;;;;2.08;1.85;;;38.40;7.00;;;;;;10418904;28;20223;-74
2022/07/20 17:50:32;;;;;;;3.47;2.20;;;38.30;7.10;;;;;;10413031;28;20233;-74
2022/07/20 17:55:35;;;;;;;3.38;2.40;;;38.30;7.70;;;;;;10415289;28;20245;-74
2022/07/20 18:00:39;;;;;;;3.47;2.15;;;38.10;8.00;;;;;;10415912;28;20268;-74
2022/07/20 18:05:43;;;;;;;2.37;2.17;;;38.10;8.90;;;;;;10417557;28;20264;-74
2022/07/20 18:10:46;;;;;;;2.30;2.10;;;38.00;9.30;;;;;;10417610;28;20956;-73
2022/07/20 18:15:50;;;;;;;2.87;2.10;;;37.80;9.70;;;;;;10416915;28;20220;-73
2022/07/20 18:20:54;;;;;;;2.07;1.90;;;37.60;9.80;;;;;;10400973;28;20229;-73
2022/07/20 18:25:58;;;;;;;2.47;2.17;;;37.40;10.40;;;;;;10409556;28;20220;-74
2022/07/20 18:31:01;;;;;;;4.70;2.23;;;37.30;10.50;;;;;;10400923;28;20228;-73
2022/07/20 18:36:06;;;;;;;2.20;2.10;;;37.10;10.70;;;;;;10403074;28;20236;-75
2022/07/20 18:41:10;;;;;;;2.97;2.20;;;36.90;11.50;;;;;;10404245;28;20225;-73
2022/07/20 18:46:14;;;;;;;2.43;2.23;;;36.70;11.40;;;;;;10401626;28;20658;-74
2022/07/20 18:51:19;;;;;;;4.40;2.40;;;36.50;11.60;;;;;;10407119;28;20228;-74
2022/07/20 18:56:22;;;;;;;2.27;2.07;;;36.40;11.90;;;;;;10402270;28;20232;-75
2022/07/20 19:01:31;;;;;;;2.20;2.10;;;36.30;11.70;;;;;;10404518;28;20821;-73
2022/07/20 19:06:36;;;;;;;3.33;2.40;;;36.00;11.90;;;;;;10403314;28;20269;-74
2022/07/20 19:11:39;;;;;;;2.80;2.60;;;35.80;11.60;;;;;;10406500;28;20227;-75
2022/07/20 19:16:43;;;;;;;3.73;2.80;;;35.60;11.90;;;;;;10401842;28;20707;-72
2022/07/20 19:21:49;;;;;;;2.87;2.67;;;35.30;11.60;;;;;;10397397;28;20894;-73
2022/07/20 19:26:52;;;;;;;3.43;3.10;;;35.20;11.90;;;;;;10390648;28;20248;-73
2022/07/20 19:31:56;;;;;;;3.20;2.90;;;34.90;11.90;;;;;;10400051;28;20805;-73
2022/07/20 19:37:01;;;;;;;4.73;3.57;;;34.70;12.30;;;;;;10410279;28;20230;-72
2022/07/20 19:42:04;;;;;;;3.40;3.10;;;34.50;12.90;;;;;;10412821;28;20229;-73
2022/07/20 19:47:07;;;;;;;3.10;2.90;;;34.20;12.70;;;;;;10407919;28;20231;-72
2022/07/20 19:52:14;;;;;;;3.17;2.87;;;33.80;12.70;;;;;;10417068;28;20889;-73
2022/07/20 19:57:18;;;;;;;3.63;2.80;;;33.60;14.00;;;;;;10419403;28;20233;-72
2022/07/20 20:02:21;;;;;;;4.90;2.90;;;33.30;14.10;;;;;;10411899;28;20300;-72
2022/07/20 20:07:26;;;;;;;4.57;3.00;;;33.10;14.40;;;;;;10417510;28;20234;-72
2022/07/20 20:12:29;;;;;;;3.87;3.03;;;32.80;15.40;;;;;;10422851;28;20229;-73
2022/07/20 20:17:33;;;;;;;5.17;3.30;;;32.60;15.40;;;;;;10418952;28;20229;-73
2022/07/20 20:22:38;;;;;;;4.07;3.37;;;32.60;15.80;;;;;;10424802;28;20312;-73
2022/07/20 20:27:41;;;;;;;4.40;3.63;;;32.40;16.00;;;;;;10419655;28;20663;-72
2022/07/20 20:33:05;;;;;;;13.47;7.00;;;32.30;16.20;;;;;;10421050;28;20221;-72
2022/07/20 20:38:10;;;;;;;15.67;9.37;;;32.20;16.00;;;;;;10418340;28;20229;-72
2022/07/20 20:43:13;;;;;;;15.13;9.17;;;32.00;17.70;;;;;;10421025;28;20234;-72
2022/07/20 20:48:16;;;;;;;14.10;8.97;;;31.80;17.90;;;;;;10415824;28;20259;-72
2022/07/20 20:53:21;;;;;;;12.27;7.83;;;31.50;18.50;;;;;;10419413;28;20217;-72
2022/07/20 20:58:25;;;;;;;11.70;6.60;;;31.20;19.20;;;;;;10417244;28;20229;-72
2022/07/20 21:03:28;;;;;;;10.23;7.07;;;30.90;19.00;;;;;;10414449;28;20742;-72
2022/07/20 21:08:33;;;;;;;11.67;5.70;;;30.60;19.20;;;;;;10416794;28;20265;-72
2022/07/20 21:13:36;;;;;;;6.10;4.80;;;30.40;19.70;;;;;;10419420;28;20229;-71
2022/07/20 21:18:39;;;;;;;6.77;4.80;;;30.20;19.30;;;;;;10413783;28;20229;-72
2022/07/20 21:23:44;;;;;;;4.50;3.70;;;30.00;19.50;;;;;;10415043;28;20235;-71
2022/07/20 21:28:47;;;;;;;4.13;3.57;;;29.80;19.90;;;;;;10405785;28;20236;-72
2022/07/20 21:33:51;;;;;;;5.00;3.40;;;29.60;20.00;;;;;;10411215;28;20222;-72
2022/07/20 21:38:57;;;;;;;5.43;3.23;;;29.40;19.80;;;;;;10418532;28;20236;-71
2022/07/20 21:44:00;;;;;;;4.03;3.40;;;29.40;20.30;;;;;;10414924;28;20235;-72
2022/07/20 21:49:04;;;;;;;3.57;2.80;;;29.40;19.90;;;;;;10413791;28;20280;-71
2022/07/20 21:54:09;;;;;;;4.10;3.00;;;29.30;19.90;;;;;;10414240;28;20895;-72
2022/07/20 21:59:12;;;;;;;4.00;3.10;;;29.30;20.30;;;;;;10417861;28;20249;-73
2022/07/20 22:04:15;;;;;;;3.43;2.67;;;29.30;20.00;;;;;;10413517;28;20766;-72
2022/07/20 22:09:20;;;;;;;3.80;2.80;;;29.20;20.00;;;;;;10416259;28;20236;-72
2022/07/20 22:14:24;;;;;;;3.40;2.90;;;29.20;20.60;;;;;;10417224;28;20257;-73
2022/07/20 22:19:27;;;;;;;3.20;3.00;;;29.20;20.30;;;;;;10416392;28;20240;-72
2022/07/20 22:24:32;;;;;;;3.00;2.80;;;29.20;20.30;;;;;;10419379;28;20256;-73
2022/07/20 22:29:37;;;;;;;3.43;2.70;;;29.20;20.70;;;;;;10419901;28;20234;-73
2022/07/20 22:34:40;;;;;;;2.60;2.40;;;29.20;20.60;;;;;;10413433;28;20241;-72
2022/07/20 22:39:45;;;;;;;2.60;2.40;;;29.10;20.60;;;;;;10418464;28;20731;-73
2022/07/20 22:44:48;;;;;;;2.50;2.30;;;29.00;20.60;;;;;;10412152;28;20229;-73
2022/07/20 22:49:52;;;;;;;2.27;2.13;;;29.00;20.60;;;;;;10419190;28;20224;-72
2022/07/20 22:54:57;;;;;;;2.17;1.90;;;28.90;20.60;;;;;;10417747;28;20243;-72
2022/07/20 23:00:00;;;;;;;2.50;2.30;;;28.80;20.60;;;;;;10417243;28;20231;-72
2022/07/20 23:05:04;;;;;;;2.63;2.30;;;28.70;20.40;;;;;;10420310;28;20740;-72
2022/07/20 23:10:11;;;;;;;2.40;2.20;;;28.60;20.80;;;;;;10406968;28;20245;-72
2022/07/20 23:15:15;;;;;;;2.90;2.27;;;28.50;21.40;;;;;;10412139;28;21050;-72
2022/07/20 23:20:25;;;;;;;2.67;2.47;;;28.40;21.00;;;;;;10415737;28;20252;-72
2022/07/20 23:25:30;;;;;;;2.30;2.20;;;28.30;21.20;;;;;;10409672;28;20229;-72
2022/07/20 23:30:33;;;;;;;2.43;2.30;;;28.30;21.50;;;;;;10414525;28;20224;-72
2022/07/20 23:35:36;;;;;;;2.73;2.40;;;28.30;21.30;;;;;;10417926;28;20705;-73
2022/07/20 23:40:41;;;;;;;2.53;2.37;;;28.30;21.30;;;;;;10416544;28;20238;-72
2022/07/20 23:45:44;;;;;;;2.70;2.50;;;28.30;21.50;;;;;;10416134;28;20854;-72
2022/07/20 23:50:48;;;;;;;2.50;2.30;;;28.40;21.60;;;;;;10415340;28;20877;-73
2022/07/20 23:55:53;;;;;;;3.80;2.77;;;28.40;21.80;;;;;;10413503;28;20249;-73
